createdAt,value
2019-01-02T00:01:28.117Z,2.17
2019-01-02T00:03:56.648Z,1.70
2019-01-02T00:06:25.060Z,1.67
2019-01-02T00:08:53.562Z,1.90
2019-01-02T00:11:21.889Z,1.73
2019-01-02T00:13:50.942Z,1.63
2019-01-02T00:16:19.025Z,1.93
2019-01-02T00:18:47.139Z,2.67
2019-01-02T00:21:15.220Z,1.77
2019-01-02T00:23:43.320Z,2.07
2019-01-02T00:26:11.408Z,1.73
2019-01-02T00:28:39.493Z,2.00
2019-01-02T00:31:07.974Z,1.97
2019-01-02T00:33:36.070Z,1.90
2019-01-02T00:36:04.901Z,1.60
2019-01-02T00:38:32.987Z,1.57
2019-01-02T00:41:01.685Z,1.97
2019-01-02T00:43:30.336Z,1.50
2019-01-02T00:45:58.810Z,1.47
2019-01-02T00:48:26.905Z,1.30
2019-01-02T00:50:55.281Z,1.30
2019-01-02T00:53:23.355Z,1.20
2019-01-02T00:55:52.213Z,1.93
2019-01-02T00:58:20.626Z,1.17
2019-01-02T01:00:49.425Z,1.50
2019-01-02T01:03:17.833Z,1.50
2019-01-02T01:05:46.648Z,1.50
2019-01-02T01:08:15.314Z,1.30
2019-01-02T01:10:44.078Z,1.30
2019-01-02T01:13:12.741Z,1.20
2019-01-02T01:15:41.437Z,1.67
2019-01-02T01:18:09.840Z,1.67
2019-01-02T01:20:38.466Z,1.90
2019-01-02T01:23:06.874Z,1.57
2019-01-02T01:25:35.351Z,1.70
2019-01-02T01:28:03.432Z,1.70
2019-01-02T01:30:31.852Z,1.40
2019-01-02T01:33:00.806Z,1.92
2019-01-02T01:35:29.245Z,1.62
2019-01-02T01:37:58.028Z,1.60
2019-01-02T01:40:26.444Z,1.77
2019-01-02T01:42:54.864Z,2.87
2019-01-02T01:45:23.579Z,2.22
2019-01-02T01:47:51.989Z,2.08
2019-01-02T01:50:20.792Z,1.87
2019-01-02T01:52:48.877Z,2.40
2019-01-02T01:55:17.311Z,2.52
2019-01-02T01:57:45.670Z,1.92
2019-01-02T02:00:15.938Z,2.07
2019-01-02T02:02:44.361Z,2.30
2019-01-02T02:05:12.780Z,2.20
2019-01-02T02:07:41.213Z,2.57
2019-01-02T02:10:12.337Z,2.43
2019-01-02T02:12:40.430Z,1.87
2019-01-02T02:15:09.765Z,1.63
2019-01-02T02:17:38.602Z,1.53
2019-01-02T02:20:10.105Z,2.10
2019-01-02T02:22:38.713Z,1.90
2019-01-02T02:25:10.605Z,1.50
2019-01-02T02:27:38.691Z,2.00
2019-01-02T02:30:15.063Z,1.80
2019-01-02T02:32:44.616Z,1.83
2019-01-02T02:35:13.420Z,2.03
2019-01-02T02:37:41.504Z,1.80
2019-01-02T02:40:10.777Z,1.90
2019-01-02T02:42:39.196Z,2.20
2019-01-02T02:45:10.551Z,1.80
2019-01-02T02:47:39.028Z,1.90
2019-01-02T02:50:10.733Z,1.80
2019-01-02T02:52:39.153Z,1.97
2019-01-02T02:55:09.728Z,1.70
2019-01-02T02:57:38.102Z,1.53
2019-01-02T03:00:07.785Z,1.80
2019-01-02T03:02:36.474Z,1.53
2019-01-02T03:05:06.683Z,1.57
2019-01-02T03:07:35.588Z,2.33
2019-01-02T03:10:06.627Z,1.33
2019-01-02T03:12:34.992Z,1.80
2019-01-02T03:15:04.263Z,1.70
2019-01-02T03:17:32.688Z,1.73
2019-01-02T03:20:00.774Z,1.30
2019-01-02T03:22:29.154Z,1.40
2019-01-02T03:24:57.635Z,1.50
2019-01-02T03:27:26.458Z,1.40
2019-01-02T03:29:55.164Z,1.37
2019-01-02T03:32:23.582Z,1.70
2019-01-02T03:34:52.386Z,1.87
2019-01-02T03:37:20.813Z,1.47
2019-01-02T03:39:49.226Z,1.93
2019-01-02T03:42:17.656Z,1.70
2019-01-02T03:44:46.158Z,1.80
2019-01-02T03:47:14.580Z,2.00
2019-01-02T03:49:43.001Z,2.17
2019-01-02T03:52:11.426Z,1.90
2019-01-02T03:54:39.534Z,1.90
2019-01-02T03:57:07.702Z,1.53
2019-01-02T03:59:36.137Z,2.15
2019-01-02T04:02:04.620Z,1.60
2019-01-02T04:04:32.716Z,1.60
2019-01-02T04:07:00.799Z,2.10
2019-01-02T04:09:29.229Z,1.97
2019-01-02T04:11:57.654Z,2.07
2019-01-02T04:14:26.081Z,1.90
2019-01-02T04:16:54.430Z,2.07
2019-01-02T04:19:22.862Z,2.03
2019-01-02T04:21:51.290Z,2.17
2019-01-02T04:24:19.397Z,2.90
2019-01-02T04:26:47.497Z,2.00
2019-01-02T04:29:15.917Z,1.70
2019-01-02T04:31:44.337Z,2.30
2019-01-02T04:34:12.441Z,1.60
2019-01-02T04:36:40.533Z,2.70
2019-01-02T04:39:08.966Z,2.30
2019-01-02T04:41:37.377Z,1.83
2019-01-02T04:44:05.809Z,2.70
2019-01-02T04:46:34.227Z,2.50
2019-01-02T04:49:02.641Z,2.13
2019-01-02T04:51:31.065Z,2.33
2019-01-02T04:53:59.495Z,2.50
2019-01-02T04:56:27.590Z,2.13
2019-01-02T04:58:55.676Z,2.50
2019-01-02T05:01:24.339Z,2.60
2019-01-02T05:03:52.762Z,3.00
2019-01-02T05:06:21.175Z,2.60
2019-01-02T05:08:49.605Z,2.83
2019-01-02T05:11:17.685Z,2.13
2019-01-02T05:13:46.138Z,3.03
2019-01-02T05:16:14.567Z,2.75
2019-01-02T05:18:42.989Z,3.23
2019-01-02T05:21:11.341Z,3.10
2019-01-02T05:23:39.438Z,2.50
2019-01-02T05:26:07.527Z,2.80
2019-01-02T05:28:35.633Z,2.73
2019-01-02T05:31:04.063Z,2.30
2019-01-02T05:33:32.520Z,2.70
2019-01-02T05:36:00.988Z,2.93
2019-01-02T05:38:29.419Z,3.40
2019-01-02T05:40:57.851Z,2.60
2019-01-02T05:43:25.945Z,2.20
2019-01-02T05:45:54.425Z,3.27
2019-01-02T05:48:22.893Z,3.77
2019-01-02T05:50:50.999Z,3.10
2019-01-02T05:53:19.414Z,3.57
2019-01-02T05:55:47.510Z,3.13
2019-01-02T05:58:15.590Z,2.80
2019-01-02T06:00:44.027Z,3.30
2019-01-02T06:03:12.446Z,2.90
2019-01-02T06:05:40.872Z,2.87
2019-01-02T06:08:09.325Z,3.20
2019-01-02T06:10:37.771Z,2.87
2019-01-02T06:13:06.189Z,2.27
2019-01-02T06:15:34.280Z,2.87
2019-01-02T06:18:02.371Z,3.40
2019-01-02T06:20:30.804Z,2.70
2019-01-02T06:22:58.885Z,3.60
2019-01-02T06:25:27.554Z,2.27
2019-01-02T06:27:55.673Z,2.77
2019-01-02T06:30:24.161Z,3.20
2019-01-02T06:32:52.593Z,2.73
2019-01-02T06:35:21.274Z,3.50
2019-01-02T06:37:49.698Z,3.00
2019-01-02T06:40:18.154Z,3.47
2019-01-02T06:42:46.641Z,2.70
2019-01-02T06:45:14.742Z,2.80
2019-01-02T06:47:43.082Z,2.43
2019-01-02T06:50:15.818Z,3.23
2019-01-02T06:52:44.237Z,3.30
2019-01-02T06:55:12.669Z,2.97
2019-01-02T06:57:40.761Z,2.50
2019-01-02T07:00:27.450Z,2.77
2019-01-02T07:02:55.534Z,2.70
2019-01-02T07:05:23.960Z,2.97
2019-01-02T07:07:52.373Z,2.20
2019-01-02T07:10:20.813Z,3.03
2019-01-02T07:12:49.234Z,2.57
2019-01-02T07:15:17.661Z,3.10
2019-01-02T07:17:46.086Z,2.73
2019-01-02T07:20:14.528Z,2.90
2019-01-02T07:22:42.949Z,3.00
2019-01-02T07:25:11.374Z,3.43
2019-01-02T07:27:39.467Z,3.20
2019-01-02T07:30:13.503Z,2.60
2019-01-02T07:32:41.921Z,3.10
2019-01-02T07:35:35.863Z,2.90
2019-01-02T07:38:13.111Z,2.50
2019-01-02T07:40:45.378Z,3.23
2019-01-02T07:43:16.881Z,3.20
2019-01-02T07:45:52.771Z,2.57
2019-01-02T07:48:34.456Z,2.53
2019-01-02T07:51:08.787Z,2.80
2019-01-02T07:53:58.254Z,2.43
2019-01-02T07:56:30.587Z,3.40
2019-01-02T07:59:16.961Z,2.17
2019-01-02T08:02:13.976Z,2.67
2019-01-02T08:04:48.226Z,2.53
2019-01-02T08:07:39.324Z,2.47
2019-01-02T08:10:25.168Z,3.07
2019-01-02T08:13:05.490Z,2.77
2019-01-02T08:15:57.848Z,2.57
2019-01-02T08:18:38.274Z,2.70
2019-01-02T08:21:18.549Z,3.27
2019-01-02T08:23:55.889Z,3.37
2019-01-02T08:26:39.272Z,3.37
2019-01-02T08:29:08.905Z,3.50
2019-01-02T08:31:41.482Z,3.50
2019-01-02T08:34:18.637Z,2.80
2019-01-02T08:37:05.178Z,2.60
2019-01-02T08:39:40.938Z,4.50
2019-01-02T08:42:10.809Z,3.60
2019-01-02T08:44:40.440Z,2.40
2019-01-02T08:47:27.966Z,3.43
2019-01-02T08:50:19.038Z,2.43
2019-01-02T08:52:53.383Z,2.90
2019-01-02T08:55:26.282Z,2.70
2019-01-02T08:58:17.542Z,3.20
2019-01-02T09:01:14.565Z,3.03
2019-01-02T09:04:13.053Z,3.60
2019-01-02T09:07:02.504Z,3.70
2019-01-02T09:09:50.146Z,2.67
2019-01-02T09:12:42.449Z,3.30
2019-01-02T09:15:12.069Z,2.87
2019-01-02T09:17:59.561Z,2.77
2019-01-02T09:20:33.839Z,3.10
2019-01-02T09:23:08.033Z,3.00
2019-01-02T09:25:42.338Z,3.13
2019-01-02T09:28:28.861Z,2.67
2019-01-02T09:31:25.939Z,3.20
2019-01-02T09:34:12.193Z,3.08
2019-01-02T09:36:49.587Z,3.40
2019-01-02T09:39:23.725Z,3.37
2019-01-02T09:42:07.023Z,3.00
2019-01-02T09:44:39.603Z,3.03
2019-01-02T09:47:11.107Z,3.33
2019-01-02T09:49:43.633Z,2.63
2019-01-02T09:52:24.041Z,3.27
2019-01-02T09:55:22.629Z,3.47
2019-01-02T09:58:05.806Z,3.27
2019-01-02T10:00:38.068Z,3.40
2019-01-02T10:03:21.306Z,3.10
2019-01-02T10:05:58.725Z,3.50
2019-01-02T10:08:53.810Z,3.40
2019-01-02T10:11:25.301Z,3.70
2019-01-02T10:14:14.794Z,3.43
2019-01-02T10:16:47.260Z,4.10
2019-01-02T10:19:22.807Z,3.63
2019-01-02T10:22:01.114Z,4.47
2019-01-02T10:24:30.745Z,3.97
2019-01-02T10:27:00.381Z,3.20
2019-01-02T10:29:52.557Z,3.07
2019-01-02T10:32:32.942Z,2.80
2019-01-02T10:35:28.133Z,2.93
2019-01-02T10:38:14.308Z,4.10
2019-01-02T10:40:57.486Z,2.93
2019-01-02T10:43:37.174Z,3.07
2019-01-02T10:46:17.425Z,3.93
2019-01-02T10:49:20.246Z,3.40
2019-01-02T10:52:23.350Z,3.87
2019-01-02T10:54:52.981Z,3.50
2019-01-02T10:57:33.100Z,4.00
2019-01-02T11:00:16.668Z,3.70
2019-01-02T11:03:01.089Z,4.00
2019-01-02T11:05:51.836Z,3.47
2019-01-02T11:08:21.713Z,3.97
2019-01-02T11:11:21.454Z,4.67
2019-01-02T11:14:07.788Z,3.30
2019-01-02T11:17:03.573Z,3.20
2019-01-02T11:19:37.758Z,3.10
2019-01-02T11:22:15.017Z,4.10
2019-01-02T11:24:44.652Z,4.03
2019-01-02T11:27:32.385Z,3.13
2019-01-02T11:30:09.718Z,4.20
2019-01-02T11:32:50.416Z,3.13
2019-01-02T11:35:43.967Z,4.33
2019-01-02T11:38:21.171Z,3.40
2019-01-02T11:41:04.754Z,3.23
2019-01-02T11:44:00.344Z,3.10
2019-01-02T11:46:28.770Z,3.50
2019-01-02T11:48:56.868Z,3.77
2019-01-02T11:51:25.209Z,4.03
2019-01-02T11:53:53.296Z,3.93
2019-01-02T11:56:21.398Z,4.20
2019-01-02T11:58:50.084Z,3.23
2019-01-02T12:01:18.602Z,3.40
2019-01-02T12:03:47.270Z,3.50
2019-01-02T12:06:15.689Z,3.93
2019-01-02T12:08:44.114Z,3.30
2019-01-02T12:11:12.620Z,3.30
2019-01-02T12:13:41.041Z,3.77
2019-01-02T12:16:09.470Z,3.30
2019-01-02T12:18:37.903Z,3.40
2019-01-02T12:21:06.340Z,3.77
2019-01-02T12:23:34.761Z,2.90
2019-01-02T12:26:03.185Z,2.87
2019-01-02T12:28:31.859Z,3.17
2019-01-02T12:31:00.370Z,4.10
2019-01-02T12:33:28.786Z,2.40
2019-01-02T12:35:57.221Z,2.77
2019-01-02T12:38:25.638Z,3.13
2019-01-02T12:40:53.988Z,3.57
2019-01-02T12:43:22.667Z,3.20
2019-01-02T12:45:50.767Z,2.53
2019-01-02T12:48:18.865Z,3.30
2019-01-02T12:50:46.952Z,3.60
2019-01-02T12:53:15.041Z,3.23
2019-01-02T12:55:43.146Z,3.30
2019-01-02T12:58:11.564Z,3.20
2019-01-02T13:00:43.067Z,2.50
2019-01-02T13:03:26.378Z,3.73
2019-01-02T13:06:16.946Z,3.37
2019-01-02T13:09:13.679Z,3.13
2019-01-02T13:11:43.326Z,2.50
2019-01-02T13:14:20.578Z,2.60
2019-01-02T13:16:59.001Z,2.93
2019-01-02T13:19:28.625Z,3.90
2019-01-02T13:22:07.049Z,2.93
2019-01-02T13:24:39.653Z,3.50
2019-01-02T13:27:14.182Z,3.93
2019-01-02T13:30:01.944Z,3.20
2019-01-02T13:32:36.008Z,3.10
2019-01-02T13:35:24.035Z,3.67
2019-01-02T13:38:07.470Z,3.80
2019-01-02T13:40:51.054Z,2.97
2019-01-02T13:43:31.130Z,3.83
2019-01-02T13:46:11.518Z,3.47
2019-01-02T13:48:46.182Z,3.90
2019-01-02T13:51:14.904Z,3.23
2019-01-02T13:53:42.991Z,3.67
2019-01-02T13:56:11.352Z,3.00
2019-01-02T13:58:39.454Z,2.80
2019-01-02T14:01:07.865Z,3.40
2019-01-02T14:03:36.290Z,4.00
2019-01-02T14:06:04.785Z,3.50
2019-01-02T14:08:33.446Z,3.63
2019-01-02T14:11:01.882Z,3.00
2019-01-02T14:13:30.319Z,4.37
2019-01-02T14:15:58.724Z,3.27
2019-01-02T14:18:26.821Z,3.60
2019-01-02T14:20:54.909Z,4.00
2019-01-02T14:23:23.258Z,4.00
2019-01-02T14:25:51.337Z,3.30
2019-01-02T14:28:19.447Z,3.07
2019-01-02T14:30:47.866Z,4.08
2019-01-02T14:33:16.542Z,3.97
2019-01-02T14:35:44.962Z,3.47
2019-01-02T14:38:13.067Z,2.67
2019-01-02T14:40:41.149Z,3.03
2019-01-02T14:43:09.574Z,3.33
2019-01-02T14:45:37.999Z,3.03
2019-01-02T14:48:06.683Z,3.00
2019-01-02T14:50:34.765Z,4.07
2019-01-02T14:53:02.857Z,3.73
2019-01-02T14:55:30.949Z,3.80
2019-01-02T14:57:59.070Z,4.20
2019-01-02T15:00:27.504Z,3.75
2019-01-02T15:02:56.183Z,3.93
2019-01-02T15:05:24.261Z,4.40
2019-01-02T15:07:52.693Z,4.27
2019-01-02T15:10:21.105Z,2.87
2019-01-02T15:12:49.528Z,3.67
2019-01-02T15:15:17.941Z,3.30
2019-01-02T15:17:46.403Z,3.47
2019-01-02T15:20:14.790Z,3.93
2019-01-02T15:22:44.070Z,3.80
2019-01-02T15:25:12.593Z,4.60
2019-01-02T15:27:41.005Z,3.60
2019-01-02T15:30:10.777Z,3.77
2019-01-02T15:32:39.189Z,3.20
2019-01-02T15:35:07.890Z,3.80
2019-01-02T15:37:36.217Z,3.40
2019-01-02T15:40:07.339Z,3.67
2019-01-02T15:42:35.748Z,3.77
2019-01-02T15:45:05.265Z,3.57
2019-01-02T15:47:33.682Z,3.87
2019-01-02T15:50:02.118Z,3.67
2019-01-02T15:52:30.534Z,2.93
2019-01-02T15:54:58.961Z,3.37
2019-01-02T15:57:27.387Z,3.23
2019-01-02T15:59:55.481Z,3.23
2019-01-02T16:02:23.897Z,3.17
2019-01-02T16:04:52.566Z,3.17
2019-01-02T16:07:20.988Z,3.30
2019-01-02T16:09:49.429Z,3.80
2019-01-02T16:12:17.845Z,3.27
2019-01-02T16:14:46.277Z,2.85
2019-01-02T16:17:14.720Z,3.40
2019-01-02T16:19:42.823Z,3.30
2019-01-02T16:22:11.246Z,2.92
2019-01-02T16:24:39.365Z,3.92
2019-01-02T16:27:07.721Z,2.63
2019-01-02T16:29:35.830Z,2.80
2019-01-02T16:32:04.501Z,2.62
2019-01-02T16:34:32.918Z,2.30
2019-01-02T16:37:01.023Z,2.90
2019-01-02T16:39:29.453Z,2.80
2019-01-02T16:41:57.865Z,2.52
2019-01-02T16:44:26.310Z,2.70
2019-01-02T16:46:54.410Z,2.70
2019-01-02T16:49:22.845Z,3.40
2019-01-02T16:51:50.930Z,3.87
2019-01-02T16:54:19.361Z,2.42
2019-01-02T16:56:47.785Z,2.30
2019-01-02T16:59:15.958Z,2.62
2019-01-02T17:01:44.378Z,2.60
2019-01-02T17:04:12.726Z,2.67
2019-01-02T17:06:41.198Z,2.50
2019-01-02T17:09:09.634Z,2.70
2019-01-02T17:11:38.069Z,2.72
2019-01-02T17:14:06.490Z,2.77
2019-01-02T17:16:34.593Z,3.80
2019-01-02T17:19:03.264Z,2.90
2019-01-02T17:21:31.373Z,2.95
2019-01-02T17:23:59.474Z,3.00
2019-01-02T17:26:27.595Z,3.27
2019-01-02T17:28:55.656Z,3.20
2019-01-02T17:31:23.763Z,3.10
2019-01-02T17:33:52.190Z,2.98
2019-01-02T17:36:20.869Z,2.70
2019-01-02T17:38:49.310Z,3.05
2019-01-02T17:41:17.654Z,2.90
2019-01-02T17:43:46.090Z,3.00
2019-01-02T17:46:14.513Z,2.75
2019-01-02T17:48:42.948Z,3.12
2019-01-02T17:51:11.044Z,2.98
2019-01-02T17:53:39.448Z,3.37
2019-01-02T17:56:07.587Z,3.08
2019-01-02T17:58:35.921Z,3.35
2019-01-02T18:01:04.844Z,2.98
2019-01-02T18:03:33.264Z,3.33
2019-01-02T18:06:01.698Z,4.42
2019-01-02T18:08:30.126Z,3.20
2019-01-02T18:10:58.805Z,3.53
2019-01-02T18:13:27.238Z,3.27
2019-01-02T18:15:55.683Z,3.37
2019-01-02T18:18:24.171Z,3.07
2019-01-02T18:20:52.621Z,2.90
2019-01-02T18:23:21.052Z,3.45
2019-01-02T18:25:49.497Z,3.45
2019-01-02T18:28:17.609Z,3.25
2019-01-02T18:30:46.042Z,2.77
2019-01-02T18:33:14.474Z,2.60
2019-01-02T18:35:42.904Z,3.05
2019-01-02T18:38:11.575Z,2.90
2019-01-02T18:40:39.681Z,3.20
2019-01-02T18:43:08.101Z,3.40
2019-01-02T18:45:36.216Z,5.12
2019-01-02T18:48:04.642Z,5.12
2019-01-02T18:50:32.802Z,3.40
2019-01-02T18:53:01.142Z,3.47
2019-01-02T18:55:29.240Z,2.93
2019-01-02T18:57:57.346Z,4.10
2019-01-02T19:00:25.782Z,3.05
2019-01-02T19:02:54.213Z,4.10
2019-01-02T19:05:22.673Z,3.35
2019-01-02T19:07:50.765Z,3.30
2019-01-02T19:10:18.856Z,3.87
2019-01-02T19:12:47.331Z,3.52
2019-01-02T19:15:15.790Z,2.85
2019-01-02T19:17:44.222Z,3.13
2019-01-02T19:20:12.916Z,3.52
2019-01-02T19:22:41.018Z,3.58
2019-01-02T19:25:09.459Z,5.25
2019-01-02T19:27:37.590Z,3.35
2019-01-02T19:30:06.851Z,3.80
2019-01-02T19:32:34.966Z,3.40
2019-01-02T19:35:03.127Z,3.12
2019-01-02T19:37:31.582Z,4.05
2019-01-02T19:39:59.739Z,3.62
2019-01-02T19:42:28.181Z,3.27
2019-01-02T19:44:56.871Z,4.53
2019-01-02T19:47:25.065Z,3.72
2019-01-02T19:49:53.198Z,3.40
2019-01-02T19:52:21.301Z,5.75
2019-01-02T19:54:49.389Z,3.43
2019-01-02T19:57:17.739Z,4.03
2019-01-02T19:59:46.170Z,3.17
2019-01-02T20:02:14.666Z,2.75
2019-01-02T20:04:43.160Z,3.47
2019-01-02T20:07:11.604Z,4.42
2019-01-02T20:09:40.031Z,3.45
2019-01-02T20:12:08.478Z,3.60
2019-01-02T20:14:36.656Z,3.95
2019-01-02T20:17:04.777Z,3.70
2019-01-02T20:19:33.005Z,4.08
2019-01-02T20:22:01.129Z,3.30
2019-01-02T20:24:29.255Z,3.55
2019-01-02T20:26:57.963Z,3.87
2019-01-02T20:29:26.529Z,3.67
2019-01-02T20:31:55.215Z,4.08
2019-01-02T20:34:23.890Z,4.53
2019-01-02T20:36:52.243Z,5.22
2019-01-02T20:39:20.658Z,3.65
2019-01-02T20:41:49.134Z,3.05
2019-01-02T20:44:17.566Z,3.40
2019-01-02T20:46:45.693Z,2.85
2019-01-02T20:49:13.792Z,3.20
2019-01-02T20:51:42.249Z,4.35
2019-01-02T20:54:10.672Z,2.90
2019-01-02T20:56:39.174Z,3.12
2019-01-02T20:59:07.606Z,3.67
2019-01-02T21:01:36.065Z,3.40
2019-01-02T21:04:04.761Z,4.37
2019-01-02T21:06:33.219Z,3.45
2019-01-02T21:09:01.720Z,3.67
2019-01-02T21:11:30.368Z,3.15
2019-01-02T21:13:59.077Z,3.37
2019-01-02T21:16:27.610Z,3.00
2019-01-02T21:18:56.034Z,2.90
2019-01-02T21:21:24.472Z,3.75
2019-01-02T21:23:52.616Z,3.40
2019-01-02T21:26:21.043Z,3.72
2019-01-02T21:28:49.658Z,3.72
2019-01-02T21:31:17.917Z,3.37
2019-01-02T21:33:46.268Z,5.55
2019-01-02T21:36:14.929Z,4.65
2019-01-02T21:38:44.075Z,4.20
2019-01-02T21:41:12.550Z,3.40
2019-01-02T21:43:40.996Z,3.08
2019-01-02T21:46:09.505Z,3.60
2019-01-02T21:48:41.269Z,3.77
2019-01-02T21:51:07.418Z,3.83
2019-01-02T21:53:35.524Z,4.00
2019-01-02T21:56:03.624Z,4.22
2019-01-02T21:58:31.738Z,2.72
2019-01-02T22:01:00.161Z,3.10
2019-01-02T22:03:28.852Z,3.27
2019-01-02T22:05:57.434Z,2.75
2019-01-02T22:08:26.044Z,2.90
2019-01-02T22:10:54.773Z,3.00
2019-01-02T22:13:23.200Z,3.50
2019-01-02T22:15:51.634Z,3.50
2019-01-02T22:18:20.056Z,3.22
2019-01-02T22:20:48.473Z,3.22
2019-01-02T22:23:16.950Z,2.70
2019-01-02T22:25:45.391Z,3.30
2019-01-02T22:28:13.542Z,3.08
2019-01-02T22:30:41.977Z,3.25
2019-01-02T22:33:10.078Z,3.50
2019-01-02T22:35:38.311Z,3.20
2019-01-02T22:38:06.795Z,3.58
2019-01-02T22:40:35.002Z,3.30
2019-01-02T22:43:03.438Z,2.67
2019-01-02T22:45:31.860Z,3.22
2019-01-02T22:48:00.425Z,3.22
2019-01-02T22:50:28.903Z,3.62
2019-01-02T22:52:57.018Z,2.83
2019-01-02T22:55:25.121Z,3.47
2019-01-02T22:57:53.694Z,3.22
2019-01-02T23:00:39.630Z,3.05
2019-01-02T23:03:25.745Z,2.98
2019-01-02T23:05:59.382Z,2.92
2019-01-02T23:08:29.454Z,2.45
2019-01-02T23:11:02.378Z,3.20
2019-01-02T23:13:32.511Z,2.60
2019-01-02T23:16:05.144Z,3.47
2019-01-02T23:18:44.154Z,2.62
2019-01-02T23:21:30.944Z,2.33
2019-01-02T23:24:16.805Z,2.80
2019-01-02T23:26:55.813Z,3.02
2019-01-02T23:29:37.549Z,3.15
2019-01-02T23:32:09.798Z,3.40
2019-01-02T23:34:55.920Z,3.10
2019-01-02T23:37:37.082Z,2.85
2019-01-02T23:40:23.930Z,2.37
2019-01-02T23:42:54.381Z,2.62
2019-01-02T23:45:33.315Z,2.20
2019-01-02T23:48:09.277Z,2.45
2019-01-02T23:50:45.107Z,2.45
2019-01-02T23:53:18.058Z,3.10
2019-01-02T23:56:04.091Z,3.22
2019-01-02T23:58:46.091Z,4.47
